Terminal Aerodrome Forecast
Issued by NWS Jackson, MS

Current Version | Previous Version | Text Only | Print | Product List | Glossary On
Versions: 1 2 3 4 5 6 7 8 9 10 11 12 13 14
000
FTUS44 KJAN 281753
TAFGWO
TAF
KGWO 281753Z 2818/2918 17012G20KT P6SM VCSH SCT050 BKN100
     FM282000 23010G15KT P6SM SCT050 BKN100
     FM290200 27005KT P6SM BKN100
     FM290400 27003KT P6SM VCSH BKN050
     FM290800 24003KT P6SM VCTS BKN050CB=

USA.gov is the U.S. government's official web portal to all federal, state and local government web resources and services.